createdAt,value
2019-03-20T19:43:00.699Z,48.90
2019-03-20T19:45:31.349Z,52.60
2019-03-20T19:48:01.690Z,54.30
2019-03-20T19:50:31.963Z,55.50
2019-03-20T19:53:01.857Z,56.80
2019-03-20T19:55:32.061Z,57.50
2019-03-20T19:58:02.503Z,57.70
2019-03-20T20:00:32.888Z,58.60
2019-03-20T20:03:03.233Z,60.30
2019-03-20T20:05:33.869Z,59.80
2019-03-20T20:08:04.217Z,60.60
2019-03-20T20:10:34.797Z,61.30
2019-03-20T20:13:08.184Z,61.30
2019-03-20T20:15:38.449Z,62.50
2019-03-20T20:18:08.673Z,63.70
2019-03-20T20:20:39.154Z,64.10
2019-03-20T20:23:09.483Z,64.20
2019-03-20T20:25:39.822Z,64.20
2019-03-20T20:28:11.410Z,64.90
2019-03-20T20:30:41.675Z,64.80
2019-03-20T20:33:11.940Z,64.70
2019-03-20T20:35:42.669Z,65.40
2019-03-20T20:38:12.988Z,66.00
2019-03-20T20:40:43.246Z,66.00
2019-03-20T20:43:13.545Z,65.90
2019-03-20T20:45:43.345Z,66.10
2019-03-20T20:48:13.767Z,65.90
2019-03-20T20:50:44.216Z,66.00
2019-03-20T20:53:14.413Z,66.00
2019-03-20T20:55:44.766Z,66.40
2019-03-20T20:58:15.188Z,66.10
2019-03-20T21:00:45.542Z,65.50
2019-03-20T21:03:15.664Z,65.40
2019-03-20T21:05:45.957Z,66.00
2019-03-20T21:08:16.156Z,66.00
2019-03-20T21:10:46.430Z,66.50
2019-03-20T21:13:16.758Z,67.20
2019-03-20T21:15:50.159Z,67.70
2019-03-20T21:19:04.417Z,67.90
2019-03-20T21:21:58.050Z,68.30
2019-03-20T21:24:29.017Z,68.60
2019-03-20T21:27:40.052Z,68.90
2019-03-20T21:31:03.243Z,69.40
2019-03-20T21:34:17.330Z,69.50
2019-03-20T21:37:25.603Z,69.50
2019-03-20T21:39:56.316Z,68.60
2019-03-20T21:43:12.158Z,68.60
2019-03-20T21:46:19.807Z,68.40
2019-03-20T21:48:50.647Z,69.40
2019-03-20T21:51:21.353Z,69.40
2019-03-20T21:54:39.317Z,69.70
2019-03-20T21:57:35.903Z,68.70
2019-03-20T22:00:45.933Z,68.90
2019-03-20T22:03:16.642Z,69.60
2019-03-20T22:06:58.045Z,69.60
2019-03-20T22:10:14.777Z,69.90
2019-03-20T22:12:54.059Z,70.00
2019-03-20T22:16:02.301Z,70.40
2019-03-20T22:19:25.138Z,70.40
2019-03-20T22:22:47.903Z,70.70
2019-03-20T22:25:54.218Z,70.20
2019-03-20T22:29:17.357Z,69.90
2019-03-20T22:32:04.889Z,70.10
2019-03-20T22:34:46.235Z,70.60
2019-03-20T22:37:20.256Z,70.50
2019-03-20T22:40:37.664Z,70.10
2019-03-20T22:43:30.047Z,70.30
2019-03-20T22:46:30.961Z,70.40
2019-03-20T22:49:41.335Z,71.10
2019-03-20T22:52:57.047Z,70.80
2019-03-20T22:56:07.998Z,71.10
2019-03-20T22:58:43.247Z,71.40
2019-03-20T23:01:24.590Z,71.40
2019-03-20T23:03:59.801Z,72.00
2019-03-20T23:06:30.522Z,71.70
2019-03-20T23:09:01.342Z,71.60
2019-03-20T23:11:32.160Z,71.50
2019-03-20T23:14:02.918Z,70.90
2019-03-20T23:16:33.637Z,71.90
2019-03-20T23:19:04.394Z,72.10
2019-03-20T23:21:35.243Z,72.10
2019-03-20T23:24:06.070Z,72.40
2019-03-20T23:26:36.837Z,72.70
2019-03-20T23:29:07.637Z,72.70
2019-03-20T23:31:38.401Z,72.60
2019-03-20T23:34:09.304Z,72.80
2019-03-20T23:36:40.132Z,72.50
2019-03-20T23:39:10.934Z,73.30
2019-03-20T23:41:41.661Z,73.10
2019-03-20T23:44:12.497Z,72.80
2019-03-20T23:46:43.350Z,72.40
2019-03-20T23:49:16.568Z,72.50
2019-03-20T23:51:47.402Z,72.80
2019-03-20T23:54:20.750Z,73.50
2019-03-20T23:56:51.805Z,73.20
2019-03-20T23:59:22.658Z,72.70
